createdAt,value
2019-01-25T00:00:07.377Z,-3.90
2019-01-25T00:01:05.444Z,-3.90
2019-01-25T00:02:08.147Z,-3.90
2019-01-25T00:03:09.782Z,-3.90
2019-01-25T00:04:07.545Z,-3.90
2019-01-25T00:05:08.309Z,-4.00
2019-01-25T00:06:05.279Z,-3.90
2019-01-25T00:07:05.356Z,-4.00
2019-01-25T00:08:05.525Z,-4.00
2019-01-25T00:09:08.206Z,-4.00
2019-01-25T00:10:07.934Z,-4.00
2019-01-25T00:11:07.617Z,-4.00
2019-01-25T00:12:08.168Z,-4.00
2019-01-25T00:13:05.092Z,-4.00
2019-01-25T00:14:05.349Z,-4.00
2019-01-25T00:15:05.486Z,-4.00
2019-01-25T00:16:05.635Z,-3.90
2019-01-25T00:17:04.771Z,-4.00
2019-01-25T00:18:07.404Z,-4.00
2019-01-25T00:19:08.039Z,-4.00
2019-01-25T00:20:05.315Z,-4.00
2019-01-25T00:21:05.635Z,-4.00
2019-01-25T00:22:04.820Z,-4.00
2019-01-25T00:23:04.867Z,-4.00
2019-01-25T00:24:07.498Z,-4.00
2019-01-25T00:25:05.580Z,-4.00
2019-01-25T00:26:04.815Z,-4.00
2019-01-25T00:27:07.642Z,-4.00
2019-01-25T00:28:11.017Z,-4.00
2019-01-25T00:29:05.153Z,-4.00
2019-01-25T00:30:04.964Z,-4.00
2019-01-25T00:31:12.619Z,-4.00
2019-01-25T00:32:05.541Z,-4.00
2019-01-25T00:33:08.310Z,-4.00
2019-01-25T00:34:07.862Z,-4.00
2019-01-25T00:35:04.934Z,-4.00
2019-01-25T00:36:05.178Z,-4.00
2019-01-25T00:37:07.977Z,-4.00
2019-01-25T00:38:05.055Z,-4.00
2019-01-25T00:39:07.739Z,-4.00
2019-01-25T00:40:06.225Z,-4.00
2019-01-25T00:41:05.721Z,-4.00
2019-01-25T00:42:04.915Z,-4.00
2019-01-25T00:43:05.021Z,-4.00
2019-01-25T00:44:05.103Z,-4.00
2019-01-25T00:45:07.684Z,-4.10
2019-01-25T00:46:08.280Z,-4.10
2019-01-25T00:47:07.891Z,-4.10
2019-01-25T00:48:04.979Z,-4.10
2019-01-25T00:49:05.083Z,-4.10
2019-01-25T00:50:05.036Z,-4.10
2019-01-25T00:51:05.085Z,-4.10
2019-01-25T00:52:05.343Z,-4.10
2019-01-25T00:53:07.978Z,-4.10
2019-01-25T00:54:05.035Z,-4.10
2019-01-25T00:55:05.149Z,-4.10
2019-01-25T00:56:05.348Z,-4.10
2019-01-25T00:57:08.071Z,-4.10
2019-01-25T00:58:05.063Z,-4.10
2019-01-25T00:59:05.212Z,-4.10
2019-01-25T01:00:05.459Z,-4.10
2019-01-25T01:01:05.662Z,-4.10
2019-01-25T01:02:07.305Z,-4.10
2019-01-25T01:03:07.784Z,-4.10
2019-01-25T01:04:04.722Z,-4.10
2019-01-25T01:05:07.420Z,-4.10
2019-01-25T01:06:05.576Z,-4.10
2019-01-25T01:07:07.364Z,-4.10
2019-01-25T01:08:05.290Z,-4.10
2019-01-25T01:09:05.325Z,-4.20
2019-01-25T01:10:13.941Z,-4.10
2019-01-25T01:11:05.158Z,-4.20
2019-01-25T01:12:05.256Z,-4.10
2019-01-25T01:13:05.330Z,-4.10
2019-01-25T01:14:05.402Z,-4.20
2019-01-25T01:15:08.037Z,-4.10
2019-01-25T01:16:05.114Z,-4.10
2019-01-25T01:17:12.950Z,-4.10
2019-01-25T01:18:04.981Z,-4.20
2019-01-25T01:19:05.328Z,-4.10
2019-01-25T01:20:08.137Z,-4.20
2019-01-25T01:21:05.219Z,-4.10
2019-01-25T01:22:07.889Z,-4.20
2019-01-25T01:23:07.325Z,-4.10
2019-01-25T01:24:05.387Z,-4.10
2019-01-25T01:25:05.698Z,-4.10
2019-01-25T01:26:04.875Z,-4.10
2019-01-25T01:27:05.130Z,-4.20
2019-01-25T01:28:11.074Z,-4.20
2019-01-25T01:29:07.562Z,-4.20
2019-01-25T01:30:05.621Z,-4.20
2019-01-25T01:31:07.270Z,-4.10
2019-01-25T01:32:05.222Z,-4.20
2019-01-25T01:33:05.332Z,-4.10
2019-01-25T01:34:05.352Z,-4.10
2019-01-25T01:35:05.435Z,-4.10
2019-01-25T01:36:05.028Z,-4.20
2019-01-25T01:37:07.615Z,-4.20
2019-01-25T01:38:05.566Z,-4.20
2019-01-25T01:39:05.601Z,-4.10
2019-01-25T01:40:05.628Z,-4.10
2019-01-25T01:41:07.318Z,-4.10
2019-01-25T01:42:07.870Z,-4.10
2019-01-25T01:43:12.492Z,-4.10
2019-01-25T01:44:08.088Z,-4.10
2019-01-25T01:45:05.056Z,-4.10
2019-01-25T01:46:07.763Z,-4.10
2019-01-25T01:47:04.686Z,-4.10
2019-01-25T01:48:07.335Z,-4.10
2019-01-25T01:49:07.811Z,-4.10
2019-01-25T01:50:07.389Z,-4.10
2019-01-25T01:51:08.057Z,-4.10
2019-01-25T01:52:07.747Z,-4.10
2019-01-25T01:53:07.441Z,-4.10
2019-01-25T01:54:05.447Z,-4.10
2019-01-25T01:55:05.533Z,-4.10
2019-01-25T01:56:05.580Z,-4.10
2019-01-25T01:57:08.344Z,-4.10
2019-01-25T01:58:07.920Z,-4.10
2019-01-25T01:59:04.844Z,-4.10
2019-01-25T02:00:04.969Z,-4.10
2019-01-25T02:01:07.568Z,-4.10
2019-01-25T02:02:05.584Z,-4.10
2019-01-25T02:03:04.694Z,-4.20
2019-01-25T02:04:07.389Z,-4.10
2019-01-25T02:05:07.976Z,-4.10
2019-01-25T02:06:05.152Z,-4.10
2019-01-25T02:07:11.095Z,-4.10
2019-01-25T02:08:05.228Z,-4.10
2019-01-25T02:09:05.411Z,-4.10
2019-01-25T02:10:05.467Z,-4.10
2019-01-25T02:11:08.061Z,-4.10
2019-01-25T02:12:07.576Z,-4.10
2019-01-25T02:13:05.535Z,-4.10
2019-01-25T02:14:05.679Z,-4.10
2019-01-25T02:15:07.275Z,-4.10
2019-01-25T02:16:05.153Z,-4.10
2019-01-25T02:17:07.909Z,-4.10
2019-01-25T02:18:04.990Z,-4.10
2019-01-25T02:19:05.373Z,-4.10
2019-01-25T02:20:05.447Z,-4.10
2019-01-25T02:21:05.526Z,-4.10
2019-01-25T02:22:08.215Z,-4.10
2019-01-25T02:23:07.767Z,-4.10
2019-01-25T02:24:04.739Z,-4.10
2019-01-25T02:25:05.520Z,-4.10
2019-01-25T02:26:05.607Z,-4.10
2019-01-25T02:27:04.654Z,-4.20
2019-01-25T02:28:07.237Z,-4.10
2019-01-25T02:29:05.174Z,-4.10
2019-01-25T02:30:05.138Z,-4.10
2019-01-25T02:31:07.729Z,-4.10
2019-01-25T02:32:04.756Z,-4.10
2019-01-25T02:33:04.805Z,-4.20
2019-01-25T02:34:07.458Z,-4.20
2019-01-25T02:35:05.445Z,-4.10
2019-01-25T02:36:08.108Z,4.10
2019-01-25T02:37:07.699Z,-4.10
2019-01-25T02:38:04.708Z,-4.20
2019-01-25T02:39:04.926Z,-4.10
2019-01-25T02:40:07.576Z,-4.10
2019-01-25T02:41:08.241Z,-4.20
2019-01-25T02:42:07.878Z,-4.20
2019-01-25T02:43:07.379Z,-4.20
2019-01-25T02:44:11.100Z,-4.20
2019-01-25T02:45:05.160Z,-4.20
2019-01-25T02:46:07.772Z,-4.20
2019-01-25T02:47:04.752Z,-4.20
2019-01-25T02:48:05.141Z,-4.20
2019-01-25T02:49:07.808Z,-4.20
2019-01-25T02:50:07.354Z,-4.20
2019-01-25T02:51:05.486Z,-4.20
2019-01-25T02:52:05.675Z,-4.20
2019-01-25T02:53:04.816Z,-4.20
2019-01-25T02:54:07.504Z,-4.20
2019-01-25T02:55:08.199Z,-4.20
2019-01-25T02:56:05.525Z,-4.20
2019-01-25T02:57:05.651Z,-4.20
2019-01-25T02:58:07.268Z,-4.20
2019-01-25T02:59:07.857Z,-4.20
2019-01-25T03:00:07.447Z,-4.20
2019-01-25T03:01:07.969Z,-4.20
2019-01-25T03:02:05.048Z,-4.20
2019-01-25T03:03:05.200Z,-4.20
2019-01-25T03:04:05.324Z,-4.20
2019-01-25T03:05:07.995Z,-4.20
2019-01-25T03:06:05.111Z,-4.20
2019-01-25T03:07:07.749Z,-4.20
2019-01-25T03:08:04.937Z,-4.20
2019-01-25T03:09:07.762Z,-4.20
2019-01-25T03:10:07.228Z,-4.20
2019-01-25T03:11:05.328Z,-4.20
2019-01-25T03:12:05.493Z,-4.20
2019-01-25T03:13:08.150Z,-4.20
2019-01-25T03:14:05.218Z,-4.30
2019-01-25T03:15:05.490Z,-4.20
2019-01-25T03:16:08.330Z,-4.20
2019-01-25T03:17:05.302Z,-4.20
2019-01-25T03:18:08.114Z,-4.20
2019-01-25T03:19:05.088Z,-4.20
2019-01-25T03:20:11.154Z,-4.20
2019-01-25T03:21:05.204Z,-4.20
2019-01-25T03:22:07.926Z,-4.20
2019-01-25T03:23:07.517Z,-4.20
2019-01-25T03:24:08.077Z,-4.30
2019-01-25T03:25:07.766Z,-4.30
2019-01-25T03:26:04.786Z,-4.20
2019-01-25T03:27:04.883Z,-4.30
2019-01-25T03:28:05.037Z,-4.30
2019-01-25T03:29:05.166Z,-4.30
2019-01-25T03:30:05.117Z,-4.30
2019-01-25T03:31:07.783Z,-4.30
2019-01-25T03:32:04.825Z,-4.30
2019-01-25T03:33:04.998Z,-4.30
2019-01-25T03:34:05.200Z,-4.30
2019-01-25T03:35:07.862Z,-4.30
2019-01-25T03:36:07.408Z,-4.30
2019-01-25T03:37:05.437Z,-4.30
2019-01-25T03:38:05.525Z,-4.30
2019-01-25T03:39:05.693Z,-4.30
2019-01-25T03:40:04.912Z,-4.30
2019-01-25T03:41:05.134Z,-4.30
2019-01-25T03:42:05.257Z,-4.30
2019-01-25T03:43:05.355Z,-4.30
2019-01-25T03:44:08.011Z,-4.30
2019-01-25T03:45:04.964Z,-4.40
2019-01-25T03:46:05.194Z,-4.30
2019-01-25T03:47:07.919Z,-4.30
2019-01-25T03:48:07.373Z,-4.30
2019-01-25T03:49:05.352Z,-4.40
2019-01-25T03:50:05.352Z,-4.30
2019-01-25T03:51:05.417Z,-4.30
2019-01-25T03:52:05.534Z,-4.30
2019-01-25T03:53:08.319Z,-4.30
2019-01-25T03:54:05.526Z,-4.30
2019-01-25T03:55:05.546Z,-4.30
2019-01-25T03:56:05.719Z,-4.30
2019-01-25T03:57:07.440Z,-4.30
2019-01-25T03:58:07.977Z,-4.30
2019-01-25T03:59:04.927Z,-4.40
2019-01-25T04:00:05.065Z,-4.30
2019-01-25T04:01:05.180Z,-4.30
2019-01-25T04:02:05.483Z,-4.30
2019-01-25T04:03:08.305Z,-4.30
2019-01-25T04:04:05.334Z,-4.30
2019-01-25T04:05:07.930Z,-4.30
2019-01-25T04:06:07.474Z,-4.30
2019-01-25T04:07:05.490Z,-4.30
2019-01-25T04:08:05.548Z,-4.30
2019-01-25T04:09:08.169Z,-4.30
2019-01-25T04:10:05.171Z,-4.30
2019-01-25T04:11:11.195Z,-4.30
2019-01-25T04:12:05.259Z,-4.30
2019-01-25T04:13:05.276Z,-4.30
2019-01-25T04:14:05.415Z,-4.30
2019-01-25T04:15:08.157Z,-4.30
2019-01-25T04:16:05.298Z,-4.30
2019-01-25T04:17:05.560Z,-4.30
2019-01-25T04:18:05.627Z,-4.40
2019-01-25T04:19:07.261Z,-4.30
2019-01-25T04:20:05.246Z,-4.30
2019-01-25T04:21:05.490Z,-4.30
2019-01-25T04:22:05.816Z,-4.30
2019-01-25T04:23:07.588Z,-4.30
2019-01-25T04:24:11.193Z,-4.30
2019-01-25T04:25:12.798Z,-4.30
2019-01-25T04:26:07.265Z,-4.30
2019-01-25T04:27:05.218Z,-4.30
2019-01-25T04:28:05.197Z,-4.30
2019-01-25T04:29:05.396Z,-4.30
2019-01-25T04:30:05.375Z,-4.30
2019-01-25T04:31:05.517Z,-4.30
2019-01-25T04:32:05.767Z,-4.30
2019-01-25T04:33:07.450Z,-4.30
2019-01-25T04:34:05.406Z,-4.30
2019-01-25T04:35:08.062Z,-4.30
2019-01-25T04:36:05.038Z,-4.30
2019-01-25T04:37:07.768Z,-4.30
2019-01-25T04:38:04.730Z,-4.30
2019-01-25T04:39:04.766Z,-4.30
2019-01-25T04:40:07.314Z,-4.30
2019-01-25T04:41:11.403Z,-4.20
2019-01-25T04:42:04.957Z,-4.30
2019-01-25T04:43:07.635Z,-4.20
2019-01-25T04:44:05.681Z,-4.20
2019-01-25T04:45:07.319Z,-4.20
2019-01-25T04:46:05.394Z,-4.30
2019-01-25T04:47:05.572Z,-4.20
2019-01-25T04:48:05.645Z,-4.30
2019-01-25T04:49:07.271Z,-4.20
2019-01-25T04:50:05.306Z,-4.30
2019-01-25T04:51:05.469Z,-4.20
2019-01-25T04:52:08.160Z,-4.20
2019-01-25T04:53:07.669Z,-4.20
2019-01-25T04:54:05.673Z,-4.20
2019-01-25T04:55:04.841Z,-4.20
2019-01-25T04:56:07.423Z,-4.20
2019-01-25T04:57:05.369Z,-4.20
2019-01-25T04:58:05.570Z,-4.20
2019-01-25T04:59:04.786Z,-4.20
2019-01-25T05:00:07.451Z,-4.20
2019-01-25T05:01:05.392Z,-4.20
2019-01-25T05:02:13.065Z,-4.20
2019-01-25T05:03:07.500Z,-4.20
2019-01-25T05:04:05.348Z,-4.20
2019-01-25T05:05:08.121Z,-4.20
2019-01-25T05:06:07.663Z,-4.20
2019-01-25T05:07:08.120Z,-4.20
2019-01-25T05:08:11.197Z,-4.20
2019-01-25T05:09:05.148Z,-4.20
2019-01-25T05:10:07.803Z,-4.20
2019-01-25T05:11:04.825Z,-4.20
2019-01-25T05:12:07.471Z,-4.20
2019-01-25T05:13:05.428Z,-4.20
2019-01-25T05:14:08.041Z,-4.20
2019-01-25T05:15:07.497Z,-4.10
2019-01-25T05:16:05.544Z,-4.20
2019-01-25T05:17:04.777Z,-4.20
2019-01-25T05:18:04.915Z,-4.20
2019-01-25T05:19:04.971Z,-4.20
2019-01-25T05:20:05.036Z,-4.10
2019-01-25T05:21:05.122Z,-4.20
2019-01-25T05:22:05.308Z,-4.10
2019-01-25T05:23:08.059Z,-4.10
2019-01-25T05:24:07.506Z,-4.20
2019-01-25T05:25:08.660Z,-4.20
2019-01-25T05:26:08.262Z,-4.20
2019-01-25T05:27:05.128Z,-4.10
2019-01-25T05:28:07.699Z,-4.10
2019-01-25T05:29:04.800Z,-4.20
2019-01-25T05:30:04.940Z,-4.10
2019-01-25T05:31:05.090Z,-4.10
2019-01-25T05:32:05.363Z,-4.20
2019-01-25T05:33:05.585Z,-4.20
2019-01-25T05:34:08.292Z,-4.10
2019-01-25T05:35:07.732Z,-4.10
2019-01-25T05:36:07.259Z,-4.10
2019-01-25T05:37:07.695Z,-4.10
2019-01-25T05:38:05.609Z,-4.10
2019-01-25T05:39:04.677Z,-4.10
2019-01-25T05:40:07.253Z,-4.10
2019-01-25T05:41:05.169Z,-4.10
2019-01-25T05:42:05.264Z,-4.10
2019-01-25T05:43:07.923Z,-4.10
2019-01-25T05:44:07.409Z,-4.20
2019-01-25T05:45:05.462Z,-4.10
2019-01-25T05:46:08.097Z,-4.10
2019-01-25T05:47:07.791Z,-4.10
2019-01-25T05:48:07.282Z,-4.10
2019-01-25T05:49:07.735Z,-4.10
2019-01-25T05:50:07.215Z,-4.10
2019-01-25T05:51:05.207Z,-4.10
2019-01-25T05:52:05.363Z,-4.10
2019-01-25T05:53:07.933Z,-4.10
2019-01-25T05:54:04.803Z,-4.10
2019-01-25T05:55:11.669Z,-4.10
2019-01-25T05:56:04.779Z,-4.10
2019-01-25T05:57:04.848Z,-4.10
2019-01-25T05:58:05.102Z,-4.10
2019-01-25T05:59:05.412Z,-4.10
2019-01-25T06:00:05.486Z,-4.10
2019-01-25T06:01:08.129Z,-4.10
2019-01-25T06:02:07.640Z,-4.10
2019-01-25T06:03:05.666Z,-4.10
2019-01-25T06:04:04.903Z,-4.10
2019-01-25T06:05:07.674Z,-4.10
2019-01-25T06:06:08.184Z,-4.10
2019-01-25T06:07:05.148Z,-4.10
2019-01-25T06:08:05.275Z,-4.10
2019-01-25T06:09:05.311Z,-4.10
2019-01-25T06:10:05.384Z,-4.10
2019-01-25T06:11:07.974Z,-4.10
2019-01-25T06:12:11.271Z,-4.10
2019-01-25T06:13:05.258Z,-4.10
2019-01-25T06:14:05.481Z,-4.10
2019-01-25T06:15:08.078Z,-4.10
2019-01-25T06:16:05.002Z,-4.10
2019-01-25T06:17:05.200Z,-4.10
2019-01-25T06:18:07.801Z,-4.10
2019-01-25T06:19:04.922Z,-4.10
2019-01-25T06:20:07.569Z,-4.10
2019-01-25T06:21:08.018Z,-4.10
2019-01-25T06:22:04.962Z,-4.10
2019-01-25T06:23:07.563Z,-4.10
2019-01-25T06:24:07.989Z,-4.10
2019-01-25T06:25:07.701Z,-4.10
2019-01-25T06:26:04.935Z,-4.10
2019-01-25T06:27:05.047Z,-4.10
2019-01-25T06:28:15.380Z,-4.10
2019-01-25T06:29:05.345Z,-4.10
2019-01-25T06:30:05.404Z,-4.10
2019-01-25T06:31:08.233Z,-4.10
2019-01-25T06:32:07.570Z,-4.10
2019-01-25T06:33:05.520Z,-4.10
2019-01-25T06:34:07.217Z,-4.10
2019-01-25T06:35:07.794Z,-4.10
2019-01-25T06:36:11.287Z,-4.10
2019-01-25T06:37:07.963Z,-4.10
2019-01-25T06:38:04.860Z,-4.10
2019-01-25T06:39:04.892Z,-4.10
2019-01-25T06:40:04.976Z,-4.10
2019-01-25T06:41:05.036Z,-4.00
2019-01-25T06:42:07.606Z,-4.10
2019-01-25T06:43:05.519Z,-4.10
2019-01-25T06:44:07.303Z,-4.10
2019-01-25T06:45:05.173Z,-4.10
2019-01-25T06:46:07.788Z,-4.10
2019-01-25T06:47:04.696Z,-4.10
2019-01-25T06:48:04.943Z,-4.10
2019-01-25T06:49:05.050Z,-4.10
2019-01-25T06:50:07.657Z,-4.10
2019-01-25T06:51:05.664Z,-4.00
2019-01-25T06:52:14.965Z,-4.10
2019-01-25T06:53:04.999Z,-4.00
2019-01-25T06:54:07.565Z,-4.10
2019-01-25T06:55:11.335Z,-4.10
2019-01-25T06:56:05.442Z,-4.10
2019-01-25T06:57:05.492Z,-4.00
2019-01-25T06:58:08.094Z,-4.10
2019-01-25T06:59:07.654Z,-4.10
2019-01-25T07:00:05.666Z,-4.00
2019-01-25T07:01:07.384Z,-4.00
2019-01-25T07:02:05.422Z,-4.10
2019-01-25T07:03:08.179Z,-4.00
2019-01-25T07:04:05.332Z,-4.00
2019-01-25T07:05:05.492Z,-4.00
2019-01-25T07:06:05.586Z,-4.00
2019-01-25T07:07:11.322Z,-4.00
2019-01-25T07:08:07.915Z,-4.00
2019-01-25T07:09:07.471Z,-4.00
2019-01-25T07:10:05.560Z,-4.00
2019-01-25T07:11:07.269Z,-4.00
2019-01-25T07:12:07.644Z,-4.00
2019-01-25T07:13:05.684Z,-4.00
2019-01-25T07:14:04.759Z,-4.00
2019-01-25T07:15:07.351Z,-4.00
2019-01-25T07:16:05.330Z,-4.00
2019-01-25T07:17:05.417Z,-4.00
2019-01-25T07:18:05.635Z,-4.00
2019-01-25T07:19:04.898Z,-4.00
2019-01-25T07:20:05.050Z,-4.00
2019-01-25T07:21:05.078Z,-4.00
2019-01-25T07:22:05.262Z,-4.00
2019-01-25T07:23:05.300Z,-4.00
2019-01-25T07:24:08.012Z,-4.00
2019-01-25T07:25:12.637Z,-4.00
2019-01-25T07:26:05.507Z,-4.00
2019-01-25T07:27:08.145Z,-4.00
2019-01-25T07:28:07.558Z,-4.00
2019-01-25T07:29:05.482Z,-4.00
2019-01-25T07:30:07.912Z,-4.00
2019-01-25T07:31:07.398Z,-4.00
2019-01-25T07:32:07.954Z,-4.00
2019-01-25T07:33:05.004Z,-4.00
2019-01-25T07:34:05.293Z,-4.00
2019-01-25T07:35:05.527Z,-3.90
2019-01-25T07:36:04.715Z,-3.90
2019-01-25T07:37:04.809Z,-3.90
2019-01-25T07:38:05.079Z,-3.90
2019-01-25T07:39:07.959Z,-3.90
2019-01-25T07:40:04.991Z,-3.90
2019-01-25T07:41:11.382Z,-3.90
2019-01-25T07:42:08.154Z,-3.90
2019-01-25T07:43:05.195Z,-3.90
2019-01-25T07:44:07.873Z,-3.90
2019-01-25T07:45:07.406Z,-3.90
2019-01-25T07:46:05.421Z,-3.90
2019-01-25T07:47:05.657Z,-3.90
2019-01-25T07:48:07.437Z,-3.90
2019-01-25T07:49:05.495Z,-3.90
2019-01-25T07:50:04.758Z,-3.90
2019-01-25T07:51:07.729Z,-3.90
2019-01-25T07:52:04.990Z,-3.90
2019-01-25T07:53:05.141Z,-3.90
2019-01-25T07:54:05.213Z,-3.80
2019-01-25T07:55:08.041Z,-3.80
2019-01-25T07:56:05.060Z,-3.80
2019-01-25T07:57:05.194Z,-3.80
2019-01-25T07:58:05.544Z,-3.80
2019-01-25T07:59:04.663Z,-3.80
2019-01-25T08:00:05.013Z,-3.80
2019-01-25T08:01:05.280Z,-3.80
2019-01-25T08:02:08.024Z,-3.80
2019-01-25T08:03:05.212Z,-3.80
2019-01-25T08:04:07.959Z,-3.80
2019-01-25T08:05:05.125Z,-3.80
2019-01-25T08:06:07.932Z,-3.80
2019-01-25T08:07:05.021Z,-3.70
2019-01-25T08:08:12.842Z,-3.80
2019-01-25T08:09:05.016Z,-3.80
2019-01-25T08:10:07.922Z,-3.70
2019-01-25T08:11:04.970Z,-3.70
2019-01-25T08:12:07.448Z,-3.70
2019-01-25T08:13:11.371Z,-3.70
2019-01-25T08:14:05.416Z,-3.70
2019-01-25T08:15:08.143Z,-3.70
2019-01-25T08:16:05.148Z,-3.70
2019-01-25T08:17:05.436Z,-3.70
2019-01-25T08:18:05.607Z,-3.70
2019-01-25T08:19:04.865Z,-3.70
2019-01-25T08:20:05.176Z,-3.70
2019-01-25T08:21:07.914Z,-3.60
2019-01-25T08:22:05.036Z,-3.70
2019-01-25T08:23:05.114Z,-3.60
2019-01-25T08:24:05.300Z,-3.60
2019-01-25T08:25:08.123Z,-3.60
2019-01-25T08:26:05.229Z,-3.70
2019-01-25T08:27:05.499Z,-3.60
2019-01-25T08:28:05.843Z,-3.60
2019-01-25T08:29:05.116Z,-3.60
2019-01-25T08:30:05.361Z,-3.60
2019-01-25T08:31:08.041Z,-3.60
2019-01-25T08:32:07.478Z,-3.60
2019-01-25T08:33:08.001Z,-3.60
2019-01-25T08:34:04.928Z,-3.60
2019-01-25T08:35:05.010Z,-3.60
2019-01-25T08:36:07.823Z,-3.50
2019-01-25T08:37:04.939Z,-3.50
2019-01-25T08:38:06.573Z,-3.50
2019-01-25T08:39:07.466Z,-3.50
2019-01-25T08:40:05.587Z,-3.50
2019-01-25T08:41:04.815Z,-3.50
2019-01-25T08:42:04.906Z,-3.50
2019-01-25T08:43:08.867Z,-3.50
2019-01-25T08:44:05.038Z,-3.50
2019-01-25T08:45:05.219Z,-3.40
2019-01-25T08:46:11.394Z,-3.40
2019-01-25T08:47:08.113Z,-3.40
2019-01-25T08:48:05.223Z,-3.40
2019-01-25T08:49:05.416Z,-3.40
2019-01-25T08:50:08.121Z,-3.30
2019-01-25T08:51:05.008Z,-3.40
2019-01-25T08:52:07.585Z,-3.30
2019-01-25T08:53:08.245Z,-3.30
2019-01-25T08:54:05.379Z,-3.30
2019-01-25T08:55:08.336Z,-3.30
2019-01-25T08:56:07.967Z,-3.30
2019-01-25T08:57:05.078Z,-3.30
2019-01-25T08:58:05.228Z,-3.30
2019-01-25T08:59:05.407Z,-3.20
2019-01-25T09:00:08.191Z,-3.20
2019-01-25T09:01:05.183Z,-3.20
2019-01-25T09:02:11.401Z,-3.20
2019-01-25T09:03:05.490Z,-3.30
2019-01-25T09:04:08.232Z,-3.10
2019-01-25T09:05:05.179Z,-3.20
2019-01-25T09:06:07.790Z,-3.20
2019-01-25T09:07:04.751Z,-3.20
2019-01-25T09:08:07.374Z,-3.10
2019-01-25T09:09:05.274Z,-3.10
2019-01-25T09:10:05.344Z,-3.10
2019-01-25T09:11:07.890Z,-3.10
2019-01-25T09:12:07.357Z,-3.10
2019-01-25T09:13:07.834Z,-3.00
2019-01-25T09:14:04.897Z,-3.10
2019-01-25T09:15:07.682Z,-3.00
2019-01-25T09:16:04.712Z,-3.00
2019-01-25T09:17:04.944Z,-3.00
2019-01-25T09:18:07.561Z,-3.00
2019-01-25T09:19:05.439Z,-3.00
2019-01-25T09:20:14.393Z,-2.90
2019-01-25T09:21:08.058Z,-2.90
2019-01-25T09:22:07.448Z,-2.90
2019-01-25T09:23:08.085Z,-2.90
2019-01-25T09:24:11.404Z,-2.90
2019-01-25T09:25:05.534Z,-2.90
2019-01-25T09:26:07.241Z,-2.80
2019-01-25T09:27:07.732Z,-2.80
2019-01-25T09:28:05.607Z,-2.80
2019-01-25T09:29:04.735Z,-2.80
2019-01-25T09:30:05.179Z,-2.70
2019-01-25T09:31:05.182Z,-2.80
2019-01-25T09:32:11.444Z,-2.70
2019-01-25T09:33:08.060Z,-2.70
2019-01-25T09:34:04.891Z,-2.60
2019-01-25T09:35:04.969Z,-2.60
2019-01-25T09:36:05.664Z,-2.70
2019-01-25T09:37:04.759Z,-2.60
2019-01-25T09:38:11.434Z,-2.70
2019-01-25T09:39:05.554Z,-2.70
2019-01-25T09:40:04.684Z,-2.60
2019-01-25T09:41:04.753Z,-2.60
2019-01-25T09:42:04.923Z,-2.60
2019-01-25T09:43:05.134Z,-2.60
2019-01-25T09:44:07.708Z,-2.60
2019-01-25T09:45:07.208Z,-2.50
2019-01-25T09:46:05.118Z,-2.50
2019-01-25T09:47:11.434Z,-2.50
2019-01-25T09:48:05.569Z,-2.50
2019-01-25T09:49:04.729Z,-2.50
2019-01-25T09:50:04.868Z,-2.50
2019-01-25T09:51:05.065Z,-2.40
2019-01-25T09:52:07.702Z,-2.40
2019-01-25T09:53:08.239Z,-2.40
2019-01-25T09:54:07.651Z,-2.40
2019-01-25T09:55:05.579Z,-2.40
2019-01-25T09:56:08.175Z,-2.40
2019-01-25T09:57:07.786Z,-2.30
2019-01-25T09:58:04.949Z,-2.30
2019-01-25T09:59:05.187Z,-2.30
2019-01-25T10:00:05.449Z,-2.30
2019-01-25T10:01:08.244Z,-2.30
2019-01-25T10:02:05.296Z,-2.30
2019-01-25T10:03:07.876Z,-2.20
2019-01-25T10:04:04.899Z,-2.30
2019-01-25T10:05:04.986Z,-2.20
2019-01-25T10:06:07.615Z,-2.20
2019-01-25T10:07:08.205Z,-2.20
2019-01-25T10:08:07.644Z,-2.20
2019-01-25T10:09:05.605Z,-2.20
2019-01-25T10:10:04.800Z,-2.20
2019-01-25T10:11:07.441Z,-2.20
2019-01-25T10:12:05.418Z,-2.10
2019-01-25T10:13:05.604Z,-2.10
2019-01-25T10:14:07.360Z,-2.10
2019-01-25T10:15:05.433Z,-2.10
2019-01-25T10:16:08.252Z,-2.10
2019-01-25T10:17:07.859Z,-2.10
2019-01-25T10:18:07.335Z,-2.00
2019-01-25T10:19:05.233Z,-2.00
2019-01-25T10:20:05.335Z,-2.00
2019-01-25T10:21:05.382Z,-2.00
2019-01-25T10:22:05.559Z,-2.10
2019-01-25T10:23:05.620Z,-2.00
2019-01-25T10:24:04.746Z,-2.00
2019-01-25T10:25:07.557Z,-2.00
2019-01-25T10:26:05.592Z,-2.00
2019-01-25T10:27:04.719Z,-2.00
2019-01-25T10:28:07.479Z,-2.00
2019-01-25T10:29:05.446Z,-2.00
2019-01-25T10:30:05.494Z,-2.00
2019-01-25T10:31:05.641Z,-2.00
2019-01-25T10:32:07.253Z,-2.00
2019-01-25T10:33:05.250Z,-2.10
2019-01-25T10:34:07.898Z,-2.00
2019-01-25T10:35:07.558Z,-2.00
2019-01-25T10:36:05.657Z,-2.00
2019-01-25T10:37:07.364Z,-2.00
2019-01-25T10:38:05.357Z,-2.00
2019-01-25T10:39:08.063Z,-2.10
2019-01-25T10:40:05.052Z,-2.00
2019-01-25T10:41:05.202Z,-2.00
2019-01-25T10:42:11.464Z,-2.00
2019-01-25T10:43:05.513Z,-2.00
2019-01-25T10:44:05.713Z,-2.00
2019-01-25T10:45:15.029Z,-2.00
2019-01-25T10:46:04.977Z,-2.00
2019-01-25T10:47:07.696Z,-2.00
2019-01-25T10:48:07.294Z,-2.00
2019-01-25T10:49:05.335Z,-2.00
2019-01-25T10:50:05.466Z,-2.00
2019-01-25T10:51:08.082Z,-2.00
2019-01-25T10:52:09.045Z,-2.00
2019-01-25T10:53:05.104Z,-2.00
2019-01-25T10:54:07.763Z,-2.00
2019-01-25T10:55:07.381Z,-2.00
2019-01-25T10:56:05.316Z,-2.00
2019-01-25T10:57:05.412Z,-2.00
2019-01-25T10:58:05.204Z,-1.90
2019-01-25T10:59:07.974Z,-1.90
2019-01-25T11:00:04.968Z,-1.90
2019-01-25T11:01:04.989Z,-1.90
2019-01-25T11:02:07.581Z,-1.90
2019-01-25T11:03:08.236Z,-1.90
2019-01-25T11:04:11.453Z,-1.90
2019-01-25T11:05:04.779Z,-1.90
2019-01-25T11:06:07.534Z,-1.90
2019-01-25T11:07:05.575Z,-1.90
2019-01-25T11:08:04.708Z,-1.80
2019-01-25T11:09:04.828Z,-1.90
2019-01-25T11:10:05.335Z,-1.80
2019-01-25T11:11:11.512Z,-1.80
2019-01-25T11:12:11.503Z,-1.80
2019-01-25T11:13:05.485Z,-1.80
2019-01-25T11:14:08.120Z,-1.80
2019-01-25T11:15:11.508Z,-1.80
2019-01-25T11:16:11.891Z,-1.80
2019-01-25T11:17:05.009Z,-1.80
2019-01-25T11:18:05.156Z,-1.80
2019-01-25T11:19:05.289Z,-1.80
2019-01-25T11:20:05.394Z,-1.80
2019-01-25T11:21:08.163Z,-1.80
2019-01-25T11:22:05.205Z,-1.80
2019-01-25T11:23:05.424Z,-1.80
2019-01-25T11:24:07.769Z,-1.80
2019-01-25T11:25:07.675Z,-1.70
2019-01-25T11:26:05.646Z,-1.80
2019-01-25T11:27:04.669Z,-1.70
2019-01-25T11:28:04.852Z,-1.70
2019-01-25T11:29:05.085Z,-1.70
2019-01-25T11:30:07.520Z,-1.70
2019-01-25T11:31:05.464Z,-1.70
2019-01-25T11:32:05.603Z,-1.70
2019-01-25T11:33:04.666Z,-1.70
2019-01-25T11:34:07.361Z,-1.60
2019-01-25T11:35:05.246Z,-1.70
2019-01-25T11:36:05.406Z,-1.60
2019-01-25T11:37:05.607Z,-1.60
2019-01-25T11:38:07.306Z,-1.70
2019-01-25T11:39:05.431Z,-1.70
2019-01-25T11:40:05.612Z,-1.70
2019-01-25T11:41:07.173Z,-1.60
2019-01-25T11:42:05.110Z,-1.60
2019-01-25T11:43:08.669Z,-1.60
2019-01-25T11:44:07.694Z,-1.60
2019-01-25T11:45:05.641Z,-1.60
2019-01-25T11:46:04.768Z,-1.60
2019-01-25T11:47:04.855Z,-1.70
2019-01-25T11:48:05.016Z,-1.70
2019-01-25T11:49:05.299Z,-1.70
2019-01-25T11:50:05.449Z,-1.60
2019-01-25T11:51:05.791Z,-1.70
2019-01-25T11:52:07.527Z,-1.70
2019-01-25T11:53:08.192Z,-1.80
2019-01-25T11:54:05.155Z,-1.70
2019-01-25T11:55:05.307Z,-1.80
2019-01-25T11:56:07.917Z,-1.80
2019-01-25T11:57:04.821Z,-1.80
2019-01-25T11:58:04.881Z,-1.70
2019-01-25T11:59:04.920Z,-1.80
2019-01-25T12:00:05.201Z,-1.70
2019-01-25T12:01:05.400Z,-1.70
2019-01-25T12:02:05.589Z,-1.80
2019-01-25T12:03:04.683Z,-1.70
2019-01-25T12:04:07.361Z,-1.80
2019-01-25T12:05:05.221Z,-1.80
2019-01-25T12:06:07.791Z,-1.80
2019-01-25T12:07:04.766Z,-1.80
2019-01-25T12:08:04.834Z,-1.80
2019-01-25T12:09:04.857Z,-1.80
2019-01-25T12:10:07.429Z,-1.80
2019-01-25T12:11:05.535Z,-1.80
2019-01-25T12:12:05.734Z,-1.80
2019-01-25T12:13:07.488Z,-1.80
2019-01-25T12:14:08.086Z,-1.80
2019-01-25T12:15:05.118Z,-1.80
2019-01-25T12:16:07.961Z,-1.80
2019-01-25T12:17:04.961Z,-1.80
2019-01-25T12:18:07.682Z,-1.80
2019-01-25T12:19:04.694Z,-1.80
2019-01-25T12:20:04.947Z,-1.80
2019-01-25T12:21:05.183Z,-1.80
2019-01-25T12:22:05.351Z,-1.80
2019-01-25T12:23:05.393Z,-1.90
2019-01-25T12:24:05.613Z,-1.80
2019-01-25T12:25:04.726Z,-1.90
2019-01-25T12:26:04.854Z,-1.80
2019-01-25T12:27:07.594Z,-1.80
2019-01-25T12:28:05.637Z,-1.80
2019-01-25T12:29:07.306Z,-1.80
2019-01-25T12:30:05.351Z,-1.80
2019-01-25T12:31:05.416Z,-1.80
2019-01-25T12:32:05.550Z,-1.80
2019-01-25T12:33:08.159Z,-1.80
2019-01-25T12:34:07.789Z,-1.80
2019-01-25T12:35:07.200Z,-1.80
2019-01-25T12:36:05.649Z,-1.80
2019-01-25T12:37:04.924Z,-1.90
2019-01-25T12:38:05.069Z,-1.80
2019-01-25T12:39:05.083Z,-1.90
2019-01-25T12:40:06.444Z,-1.90
2019-01-25T12:41:05.777Z,-1.90
2019-01-25T12:42:08.112Z,-1.90
2019-01-25T12:43:05.152Z,-1.90
2019-01-25T12:44:05.278Z,-2.00
2019-01-25T12:45:07.844Z,-2.00
2019-01-25T12:46:04.808Z,-2.00
2019-01-25T12:47:04.951Z,-2.00
2019-01-25T12:48:05.283Z,-2.00
2019-01-25T12:49:04.823Z,-2.00
2019-01-25T12:50:07.451Z,-2.00
2019-01-25T12:51:05.657Z,-2.00
2019-01-25T12:52:08.248Z,-2.00